Time;durP1;ratioP1;P1;durP2;ratioP2;P2;SDS_P1;SDS_P2;PMS_P1;PMS_P2;Temp;Humidity;BMP_temperature;BMP_pressure;BME280_temperature;BME280_humidity;BME280_pressure;Samples;Min_cycle;Max_cycle;Signal;HPM_P1;HPM_P2
2022/10/14 00:00:42;;;;;;;26.90;13.57;;;;;;;17.05;55.27;98402.72;5299625;27;20053;-82
2022/10/14 00:03:09;;;;;;;27.90;13.35;;;;;;;16.69;56.71;98395.41;5299908;27;20041;-82
2022/10/14 00:05:39;;;;;;;27.62;13.65;;;;;;;15.96;59.20;98398.09;5299568;27;20374;-82
2022/10/14 00:08:07;;;;;;;28.45;13.68;;;;;;;17.18;55.40;98397.56;5299770;27;20057;-82
2022/10/14 00:10:38;;;;;;;26.10;13.05;;;;;;;17.36;55.03;98391.16;5299864;27;20050;-82
2022/10/14 00:13:05;;;;;;;25.83;13.25;;;;;;;17.13;56.21;98389.19;5299828;27;20042;-82
2022/10/14 00:15:37;;;;;;;26.75;13.62;;;;;;;17.52;54.62;98390.97;5280064;27;20073;-82
2022/10/14 00:18:05;;;;;;;27.17;12.95;;;;;;;17.53;53.99;98393.50;5299675;27;20076;-82
2022/10/14 00:20:32;;;;;;;25.00;12.95;;;;;;;17.29;54.39;98395.94;5299658;27;20049;-82
2022/10/14 00:22:59;;;;;;;20.75;10.00;;;;;;;17.08;55.17;98397.31;5299824;27;20392;-82
2022/10/14 00:25:27;;;;;;;23.12;11.27;;;;;;;17.02;52.63;98388.13;5299591;27;20415;-82
2022/10/14 00:27:54;;;;;;;21.62;10.90;;;;;;;16.02;55.76;98397.72;5299584;27;20107;-82
2022/10/14 00:30:21;;;;;;;21.83;10.70;;;;;;;16.52;54.37;98391.22;5299762;27;20064;-82
2022/10/14 00:32:48;;;;;;;22.23;9.95;;;;;;;16.66;54.24;98387.75;5299762;27;20049;-82
2022/10/14 00:35:15;;;;;;;21.55;10.00;;;;;;;16.34;54.24;98397.56;5299068;27;20068;-82
2022/10/14 00:37:42;;;;;;;22.27;10.27;;;;;;;16.05;56.18;98389.72;5299617;27;20486;-82
2022/10/14 00:40:09;;;;;;;21.02;10.40;;;;;;;16.30;55.86;98388.25;5299729;27;20109;-82
2022/10/14 00:42:36;;;;;;;21.70;10.88;;;;;;;16.24;56.59;98389.47;5299520;27;20045;-82
2022/10/14 00:45:08;;;;;;;22.83;11.07;;;;;;;16.66;55.64;98383.38;5299519;27;20081;-82
2022/10/14 00:47:35;;;;;;;22.35;10.65;;;;;;;15.73;58.64;98381.19;5299536;27;20057;-82
2022/10/14 00:50:02;;;;;;;22.15;10.50;;;;;;;16.60;56.84;98375.13;5299327;27;20049;-82
2022/10/14 00:52:29;;;;;;;20.75;9.82;;;;;;;16.76;56.08;98370.66;5299837;27;20379;-82
2022/10/14 00:55:03;;;;;;;21.83;9.80;;;;;;;16.91;55.52;98374.94;5299516;27;20076;-82
2022/10/14 00:57:30;;;;;;;22.45;11.23;;;;;;;16.66;57.00;98370.37;5299657;27;20068;-82
2022/10/14 01:00:03;;;;;;;23.83;11.18;;;;;;;17.28;54.18;98364.72;5280134;27;20053;-82
2022/10/14 01:02:30;;;;;;;22.90;10.73;;;;;;;16.75;55.92;98363.78;5280288;27;20045;-82
2022/10/14 01:04:58;;;;;;;24.48;11.57;;;;;;;17.09;55.08;98364.25;5299325;27;20065;-82
2022/10/14 01:07:34;;;;;;;25.50;12.63;;;;;;;16.54;56.00;98363.31;5280549;27;20060;-82
2022/10/14 01:10:08;;;;;;;22.05;9.90;;;;;;;16.66;56.74;98365.16;5299576;27;20059;-82
2022/10/14 01:13:00;;;;;;;22.17;9.65;;;;;;;17.17;53.96;98362.81;5280349;27;20045;-82
2022/10/14 01:15:42;;;;;;;22.73;10.40;;;;;;;16.68;54.66;98363.31;5279887;27;20205;-82
2022/10/14 01:18:19;;;;;;;20.12;10.55;;;;;;;16.83;53.57;98366.75;5299421;27;20053;-82
2022/10/14 01:20:55;;;;;;;21.77;10.70;;;;;;;16.41;54.30;98362.41;5280312;27;20415;-82
2022/10/14 01:23:43;;;;;;;23.20;10.25;;;;;;;16.33;54.67;98362.87;5299915;27;20090;-82
2022/10/14 01:26:19;;;;;;;19.37;9.50;;;;;;;15.75;56.46;98368.13;5299433;27;20387;-82
2022/10/14 01:28:54;;;;;;;21.45;9.85;;;;;;;15.96;56.21;98368.63;5299627;27;20061;-82
2022/10/14 01:31:24;;;;;;;21.77;10.13;;;;;;;16.41;55.37;98355.44;5299420;27;20094;-82
2022/10/14 01:33:55;;;;;;;22.62;10.57;;;;;;;16.63;55.07;98356.69;5299415;27;20098;-82
2022/10/14 01:36:26;;;;;;;19.95;9.75;;;;;;;16.55;55.38;98361.53;5279820;27;20065;-82
2022/10/14 01:38:57;;;;;;;20.37;9.52;;;;;;;16.51;55.64;98355.69;5299251;27;20494;-82
2022/10/14 01:41:28;;;;;;;20.37;9.75;;;;;;;17.10;53.81;98355.47;5299596;27;20059;-82
2022/10/14 01:43:57;;;;;;;22.65;10.40;;;;;;;17.10;54.06;98358.09;5280075;27;20045;-82
2022/10/14 01:46:26;;;;;;;20.77;9.57;;;;;;;17.02;54.49;98367.25;5280275;27;20065;-82
2022/10/14 01:49:02;;;;;;;23.02;10.43;;;;;;;16.55;55.89;98351.12;5276723;27;20060;-82
2022/10/14 01:51:40;;;;;;;21.90;10.43;;;;;;;16.06;57.80;98356.75;5277198;27;20117;-82
2022/10/14 01:54:14;;;;;;;23.77;10.57;;;;;;;16.12;57.83;98357.19;5277076;27;20408;-82
2022/10/14 01:56:44;;;;;;;20.95;10.20;;;;;;;16.16;57.62;98355.22;5278364;27;20114;-82
2022/10/14 01:59:12;;;;;;;19.17;9.73;;;;;;;16.89;54.99;98355.91;5277003;27;20057;-82
2022/10/14 02:01:39;;;;;;;27.52;10.60;;;;;;;16.97;53.96;98345.84;5276916;27;20054;-82
2022/10/14 02:04:19;;;;;;;22.40;10.43;;;;;;;17.09;52.82;98353.81;5278462;27;20537;-81
2022/10/14 02:07:10;;;;;;;29.15;11.10;;;;;;;16.75;53.52;98348.16;5278435;27;20072;-82
2022/10/14 02:09:53;;;;;;;24.00;10.93;;;;;;;17.06;52.65;98344.44;5277061;27;20411;-82
2022/10/14 02:12:44;;;;;;;23.58;11.30;;;;;;;17.01;52.95;98341.25;5277127;27;20068;-82
2022/10/14 02:15:20;;;;;;;23.15;11.55;;;;;;;17.18;53.02;98334.97;5276971;27;20118;-82
2022/10/14 02:18:08;;;;;;;25.40;11.73;;;;;;;16.74;54.74;98334.28;5278389;27;20072;-82
2022/10/14 02:21:02;;;;;;;26.50;11.77;;;;;;;16.63;55.09;98325.44;5276860;27;20065;-82
2022/10/14 02:23:32;;;;;;;26.17;13.75;;;;;;;16.09;57.01;98331.34;5277104;27;20422;-82
2022/10/14 02:25:59;;;;;;;29.25;13.82;;;;;;;15.61;59.22;98324.69;5278325;27;20403;-82
2022/10/14 02:28:26;;;;;;;28.15;13.13;;;;;;;15.51;59.89;98329.56;5276656;27;20057;-81
2022/10/14 02:30:59;;;;;;;26.27;12.88;;;;;;;17.13;56.47;98326.63;5278287;27;20108;-81
2022/10/14 02:33:32;;;;;;;27.25;12.25;;;;;;;16.18;59.45;98332.56;5277216;27;20438;-82
2022/10/14 02:36:00;;;;;;;24.73;12.50;;;;;;;15.99;59.63;98335.44;5277060;27;20045;-82
2022/10/14 02:38:29;;;;;;;23.58;12.30;;;;;;;16.02;59.01;98329.22;5276876;27;20076;-82
2022/10/14 02:40:56;;;;;;;23.15;11.32;;;;;;;16.04;58.73;98332.53;5276907;27;20061;-82
2022/10/14 02:43:23;;;;;;;22.87;11.25;;;;;;;15.43;58.45;98328.34;5259141;27;20054;-82
2022/10/14 02:45:56;;;;;;;24.23;11.15;;;;;;;15.29;57.81;98324.75;5278096;27;20057;-81
2022/10/14 02:48:23;;;;;;;22.85;11.07;;;;;;;15.85;56.42;98323.25;5279564;27;21817;-82
2022/10/14 02:50:50;;;;;;;22.00;11.20;;;;;;;16.10;55.57;98324.37;5280889;27;20433;-82
2022/10/14 02:53:17;;;;;;;24.50;11.85;;;;;;;15.96;54.88;98327.00;5300056;27;20049;-82
2022/10/14 02:55:43;;;;;;;25.80;10.98;;;;;;;15.82;55.06;98322.59;5299724;27;20054;-81
2022/10/14 02:58:10;;;;;;;24.83;12.32;;;;;;;16.15;53.80;98317.13;5299898;27;20065;-82
2022/10/14 03:00:37;;;;;;;24.85;12.52;;;;;;;16.50;52.24;98317.56;5300061;27;20075;-82
2022/10/14 03:03:04;;;;;;;28.60;13.57;;;;;;;16.60;52.13;98313.44;5299991;27;20094;-82
2022/10/14 03:05:31;;;;;;;25.77;13.80;;;;;;;16.34;52.82;98319.44;5299946;27;20471;-82
2022/10/14 03:07:58;;;;;;;25.90;12.90;;;;;;;15.72;54.49;98316.25;5300069;27;20075;-82
2022/10/14 03:10:25;;;;;;;26.17;13.95;;;;;;;15.79;54.94;98315.81;5299963;27;20094;-82
2022/10/14 03:12:52;;;;;;;31.80;13.82;;;;;;;16.70;52.64;98306.75;5300078;27;20328;-82
2022/10/14 03:15:19;;;;;;;28.25;13.88;;;;;;;15.84;55.17;98307.72;5300056;27;20046;-82
2022/10/14 03:17:46;;;;;;;25.60;13.62;;;;;;;15.54;55.92;98305.16;5299739;27;20053;-82
2022/10/14 03:20:13;;;;;;;27.17;13.48;;;;;;;15.85;55.50;98307.66;5300090;27;20080;-82
2022/10/14 03:22:40;;;;;;;28.95;13.07;;;;;;;15.85;55.57;98312.84;5300159;27;20049;-82
2022/10/14 03:25:08;;;;;;;25.48;12.32;;;;;;;16.33;54.09;98309.94;5299937;27;20102;-82
2022/10/14 03:27:35;;;;;;;27.70;13.48;;;;;;;16.28;54.33;98304.22;5300124;27;20072;-82
2022/10/14 03:30:02;;;;;;;23.35;12.13;;;;;;;16.30;53.90;98307.53;5300098;27;20068;-82
2022/10/14 03:32:29;;;;;;;23.50;12.23;;;;;;;16.17;53.64;98302.25;5280678;27;20132;-82
2022/10/14 03:34:56;;;;;;;27.27;11.75;;;;;;;16.12;53.14;98307.72;5299982;27;20050;-82
2022/10/14 03:37:23;;;;;;;24.87;11.80;;;;;;;16.19;52.30;98306.44;5300096;27;20061;-82
2022/10/14 03:39:50;;;;;;;24.83;11.85;;;;;;;15.83;52.71;98317.28;5300114;27;20559;-82
2022/10/14 03:42:17;;;;;;;24.27;12.73;;;;;;;15.91;52.67;98314.25;5299889;27;20424;-82
2022/10/14 03:44:45;;;;;;;25.45;12.77;;;;;;;15.23;54.22;98312.12;5299799;27;20065;-82
2022/10/14 03:47:11;;;;;;;24.25;12.35;;;;;;;15.47;53.82;98314.25;5300030;27;20067;-82
2022/10/14 03:49:38;;;;;;;25.25;12.35;;;;;;;16.10;52.75;98312.19;5299555;27;20439;-82
2022/10/14 03:52:05;;;;;;;20.83;10.20;;;;;;;16.24;52.09;98302.69;5299778;27;20053;-82
2022/10/14 03:54:32;;;;;;;23.02;10.73;;;;;;;15.62;53.43;98309.00;5299775;27;20041;-82
2022/10/14 03:56:59;;;;;;;29.10;14.50;;;;;;;15.26;54.84;98303.31;5299757;27;20057;-82
2022/10/14 03:59:26;;;;;;;36.47;18.92;;;;;;;16.19;52.71;98292.59;5299807;27;20079;-82
2022/10/14 04:01:53;;;;;;;33.60;17.08;;;;;;;15.19;55.92;98295.03;5299929;27;20063;-82
2022/10/14 04:04:20;;;;;;;30.52;14.98;;;;;;;15.18;56.56;98295.94;5299737;27;20109;-82
2022/10/14 04:06:47;;;;;;;33.72;15.90;;;;;;;15.39;56.55;98293.03;5299628;27;20058;-82
2022/10/14 04:09:14;;;;;;;33.60;15.20;;;;;;;16.21;54.56;98290.72;5299543;27;20068;-82
2022/10/14 04:11:41;;;;;;;30.42;14.70;;;;;;;16.09;55.34;98297.53;5299597;27;20050;-82
2022/10/14 04:14:08;;;;;;;28.90;14.85;;;;;;;15.60;56.48;98307.41;5299614;27;20049;-81
2022/10/14 04:16:35;;;;;;;30.60;15.15;;;;;;;15.95;55.83;98314.88;5299690;27;20061;-82
2022/10/14 04:19:02;;;;;;;28.35;13.68;;;;;;;16.16;54.27;98313.56;5299763;27;20517;-82
2022/10/14 04:21:29;;;;;;;26.90;13.88;;;;;;;15.61;55.68;98309.09;5299764;27;20112;-82
2022/10/14 04:23:56;;;;;;;23.38;12.10;;;;;;;15.44;55.89;98304.84;5299814;27;20046;-82
2022/10/14 04:26:22;;;;;;;31.15;14.30;;;;;;;15.44;55.82;98307.47;5299735;27;20081;-82
2022/10/14 04:28:49;;;;;;;28.35;14.07;;;;;;;15.46;55.63;98304.78;5299691;27;20053;-82
2022/10/14 04:31:16;;;;;;;32.10;14.32;;;;;;;16.30;52.93;98303.19;5280241;27;20109;-82
2022/10/14 04:33:43;;;;;;;29.90;15.10;;;;;;;16.55;52.17;98302.47;5299848;27;20042;-82
2022/10/14 04:36:10;;;;;;;29.27;13.45;;;;;;;15.93;53.53;98301.13;5299375;27;20075;-82
2022/10/14 04:38:37;;;;;;;25.05;12.48;;;;;;;16.19;51.99;98306.44;5299707;27;20061;-82
2022/10/14 04:41:04;;;;;;;32.47;15.07;;;;;;;16.24;50.90;98302.69;5299598;27;20064;-82
2022/10/14 04:43:31;;;;;;;28.55;13.82;;;;;;;15.68;52.59;98304.38;5299866;27;20493;-82
2022/10/14 04:45:58;;;;;;;29.70;14.87;;;;;;;15.66;53.14;98306.22;5299586;27;20062;-82
2022/10/14 04:48:24;;;;;;;32.80;14.80;;;;;;;16.23;51.90;98298.44;5299188;27;20053;-82
2022/10/14 04:50:52;;;;;;;28.38;14.05;;;;;;;15.52;53.45;98302.63;5299788;27;20060;-82
2022/10/14 04:53:19;;;;;;;28.02;12.68;;;;;;;15.10;54.97;98299.91;5280234;27;20056;-82
2022/10/14 04:55:48;;;;;;;38.83;16.95;;;;;;;15.01;55.52;98293.50;5299179;27;20128;-82
2022/10/14 04:58:15;;;;;;;63.45;26.33;;;;;;;16.03;53.11;98289.22;5299722;27;20326;-82
2022/10/14 05:00:42;;;;;;;39.00;18.90;;;;;;;16.11;53.20;98287.84;5299588;27;20049;-81
2022/10/14 05:03:09;;;;;;;47.80;21.95;;;;;;;16.32;52.60;98297.88;5300764;27;20053;-81
2022/10/14 05:05:36;;;;;;;41.67;19.80;;;;;;;16.55;52.29;98299.03;5303869;27;20030;-80
2022/10/14 05:08:03;;;;;;;55.63;25.75;;;;;;;16.05;54.07;98300.38;5304703;27;20071;-81
2022/10/14 05:10:30;;;;;;;50.85;23.50;;;;;;;16.03;54.22;98302.25;5299369;27;20049;-81
2022/10/14 05:12:57;;;;;;;62.80;29.58;;;;;;;16.09;53.29;98307.94;5299904;27;20106;-81
2022/10/14 05:15:24;;;;;;;45.78;20.00;;;;;;;15.62;55.61;98311.59;5299501;27;20430;-81
2022/10/14 05:17:51;;;;;;;40.03;18.48;;;;;;;15.59;58.28;98306.56;5299873;27;20083;-81
2022/10/14 05:20:18;;;;;;;43.13;20.88;;;;;;;14.91;61.05;98311.38;5299971;27;20098;-81
2022/10/14 05:22:44;;;;;;;46.13;21.83;;;;;;;14.68;61.93;98314.41;5299553;27;20099;-81
2022/10/14 05:25:11;;;;;;;45.95;22.33;;;;;;;14.91;61.65;98310.53;5300054;27;20076;-81
2022/10/14 05:27:39;;;;;;;41.53;20.37;;;;;;;15.15;61.07;98316.94;5300229;27;20067;-81
2022/10/14 05:30:06;;;;;;;47.45;22.85;;;;;;;15.30;60.47;98304.81;5299835;27;20053;-81
2022/10/14 05:32:33;;;;;;;42.53;20.25;;;;;;;15.61;59.94;98312.53;5299965;27;20049;-81
2022/10/14 05:35:00;;;;;;;42.65;20.75;;;;;;;15.80;58.75;98307.06;5299814;27;20069;-81
2022/10/14 05:37:27;;;;;;;45.88;24.00;;;;;;;15.97;58.09;98313.03;5299547;27;20057;-81
2022/10/14 05:39:54;;;;;;;49.35;25.30;;;;;;;17.14;54.40;98307.44;5299796;27;20313;-81
2022/10/14 05:42:21;;;;;;;61.35;32.05;;;;;;;16.96;54.39;98310.28;5299785;27;20045;-81
2022/10/14 05:44:48;;;;;;;93.47;40.33;;;;;;;16.99;54.24;98309.25;5299193;27;20081;-81
2022/10/14 05:47:15;;;;;;;86.60;39.15;;;;;;;17.00;54.43;98313.53;5299476;27;20125;-81
2022/10/14 05:49:42;;;;;;;80.47;36.58;;;;;;;16.33;58.21;98309.94;5298880;27;20324;-81
2022/10/14 05:52:09;;;;;;;76.20;35.60;;;;;;;16.35;58.23;98311.53;5299539;27;20056;-81
2022/10/14 05:54:36;;;;;;;43.13;22.77;;;;;;;16.80;57.76;98308.75;5300331;27;20061;-81
2022/10/14 05:57:03;;;;;;;45.90;22.27;;;;;;;16.75;56.33;98315.09;5299503;27;20418;-81
2022/10/14 05:59:32;;;;;;;44.05;19.80;;;;;;;17.37;54.50;98318.97;5298565;27;20050;-81
2022/10/14 06:01:59;;;;;;;35.15;18.37;;;;;;;17.37;52.58;98321.56;5300113;27;20589;-82
2022/10/14 06:04:26;;;;;;;30.00;15.82;;;;;;;18.35;50.26;98321.81;5300364;27;20041;-82
2022/10/14 06:06:53;;;;;;;34.22;16.00;;;;;;;18.87;46.92;98320.78;5299520;27;20053;-82
2022/10/14 06:09:19;;;;;;;34.35;18.20;;;;;;;19.05;47.16;98329.06;5300205;27;20049;-81
2022/10/14 06:11:47;;;;;;;33.05;18.08;;;;;;;19.43;46.67;98328.84;5299773;27;20107;-82
2022/10/14 06:14:14;;;;;;;35.58;17.30;;;;;;;19.93;46.60;98326.88;5302588;27;20042;-81
2022/10/14 06:16:40;;;;;;;40.08;18.60;;;;;;;20.42;45.40;98334.44;5303478;27;20072;-82
2022/10/14 06:19:07;;;;;;;34.53;18.52;;;;;;;20.90;44.55;98341.13;5301754;27;20053;-83
2022/10/14 06:21:34;;;;;;;35.92;19.42;;;;;;;21.11;44.25;98338.56;5302784;27;20072;-82
2022/10/14 06:24:01;;;;;;;37.95;21.85;;;;;;;21.52;43.87;98333.44;5302434;27;20076;-80
2022/10/14 06:26:28;;;;;;;46.35;21.87;;;;;;;22.19;43.00;98340.06;5299170;27;20056;-81
2022/10/14 06:28:55;;;;;;;49.25;27.73;;;;;;;22.62;42.64;98341.63;5298828;27;20518;-80
2022/10/14 06:31:22;;;;;;;53.50;27.87;;;;;;;22.85;42.33;98343.09;5299009;27;20110;-81
2022/10/14 06:33:49;;;;;;;61.63;33.08;;;;;;;23.24;41.89;98343.97;5299174;27;20158;-81
2022/10/14 06:36:15;;;;;;;64.80;33.13;;;;;;;23.31;42.02;98347.72;5299777;27;20065;-80
2022/10/14 06:38:42;;;;;;;59.28;30.45;;;;;;;23.58;41.33;98352.31;5300431;27;20048;-80
2022/10/14 06:41:09;;;;;;;51.22;29.15;;;;;;;23.94;40.99;98347.28;5299731;27;20340;-81
2022/10/14 06:43:36;;;;;;;52.45;26.83;;;;;;;24.38;40.49;98356.31;5301578;27;20057;-81
2022/10/14 06:46:04;;;;;;;47.55;26.15;;;;;;;24.62;40.03;98352.31;5299917;27;20328;-81
2022/10/14 06:48:31;;;;;;;38.47;19.35;;;;;;;25.20;38.86;98357.28;5280142;27;20056;-82
2022/10/14 06:50:59;;;;;;;37.58;19.30;;;;;;;25.33;37.44;98363.03;5299746;27;20045;-82
2022/10/14 06:53:26;;;;;;;32.58;19.17;;;;;;;25.30;37.67;98360.66;5299802;27;20072;-82
2022/10/14 06:56:00;;;;;;;36.58;20.52;;;;;;;26.12;36.35;98368.28;5299745;27;20053;-81
2022/10/14 06:58:27;;;;;;;33.92;18.23;;;;;;;25.54;37.30;98365.38;5299513;27;20053;-81
2022/10/14 07:00:54;;;;;;;30.30;18.17;;;;;;;25.73;37.02;98359.91;5280052;27;20045;-81
2022/10/14 07:03:26;;;;;;;31.12;18.17;;;;;;;25.19;38.39;98367.00;5299971;27;20083;-81
2022/10/14 07:05:53;;;;;;;29.00;15.77;;;;;;;23.42;42.51;98359.94;5299889;27;20025;-80
2022/10/14 07:08:20;;;;;;;26.30;13.20;;;;;;;25.18;39.43;98357.44;5279936;27;20053;-79
2022/10/14 07:10:47;;;;;;;30.05;13.48;;;;;;;23.79;42.28;98353.94;5300575;27;20050;-83
2022/10/14 07:13:14;;;;;;;24.23;13.25;;;;;;;22.15;45.97;98357.91;5299767;27;20079;-83
2022/10/14 07:15:41;;;;;;;24.30;12.55;;;;;;;22.21;45.89;98353.91;5299299;27;20347;-84
2022/10/14 07:18:08;;;;;;;21.25;12.82;;;;;;;21.61;47.69;98363.34;5299586;27;20499;-83
2022/10/14 07:20:35;;;;;;;23.85;13.27;;;;;;;21.52;47.29;98366.72;5299744;27;20296;-82
2022/10/14 07:23:01;;;;;;;27.80;13.68;;;;;;;20.46;50.36;98364.69;5299227;27;20072;-83
2022/10/14 07:25:28;;;;;;;21.35;12.23;;;;;;;20.40;50.99;98362.50;5299717;27;20056;-83
2022/10/14 07:27:55;;;;;;;24.33;11.77;;;;;;;20.83;50.26;98360.94;5299785;27;20069;-83
2022/10/14 07:30:22;;;;;;;21.70;12.00;;;;;;;20.83;49.82;98359.16;5299686;27;20049;-83
2022/10/14 07:32:49;;;;;;;27.75;13.35;;;;;;;19.22;54.32;98362.66;5299917;27;20065;-84
2022/10/14 07:35:17;;;;;;;24.75;13.15;;;;;;;19.16;55.92;98367.53;5299602;27;20395;-82
2022/10/14 07:37:45;;;;;;;20.40;11.75;;;;;;;19.60;54.66;98370.34;5299193;27;20097;-81
2022/10/14 07:40:12;;;;;;;23.48;12.63;;;;;;;19.39;55.43;98364.06;5299751;27;20045;-85
2022/10/14 07:42:39;;;;;;;24.87;13.45;;;;;;;19.11;56.69;98364.41;5262040;27;20497;-85
2022/10/14 07:45:07;;;;;;;29.55;14.43;;;;;;;18.98;57.48;98370.50;5299508;27;20065;-84
2022/10/14 07:47:34;;;;;;;29.27;14.68;;;;;;;19.61;56.21;98366.78;5299699;27;20349;-84
2022/10/14 07:50:01;;;;;;;26.62;14.65;;;;;;;20.47;53.62;98374.19;5298994;27;20422;-85
2022/10/14 07:52:27;;;;;;;32.03;15.93;;;;;;;19.94;55.46;98376.50;5299697;27;20058;-83
2022/10/14 07:54:54;;;;;;;28.00;14.65;;;;;;;20.20;53.69;98373.66;5299483;27;20083;-85
2022/10/14 07:57:22;;;;;;;27.13;14.45;;;;;;;20.81;52.37;98368.94;5299280;27;20068;-83
2022/10/14 07:59:51;;;;;;;31.65;15.82;;;;;;;20.10;53.82;98370.97;5299712;27;20086;-84
2022/10/14 08:02:18;;;;;;;27.08;15.02;;;;;;;19.77;54.58;98371.69;5299789;27;20435;-84
2022/10/14 08:04:45;;;;;;;28.77;15.10;;;;;;;20.41;53.47;98379.03;5299325;27;20065;-84
2022/10/14 08:07:15;;;;;;;30.33;15.98;;;;;;;19.86;53.92;98378.03;5299700;27;20049;-85
2022/10/14 08:09:42;;;;;;;26.92;14.68;;;;;;;20.70;52.27;98372.41;5299450;27;20046;-84
2022/10/14 08:12:09;;;;;;;26.08;15.13;;;;;;;20.78;51.62;98369.19;5299201;27;20058;-85
2022/10/14 08:14:36;;;;;;;26.90;14.87;;;;;;;20.83;51.40;98374.03;5299505;27;20065;-83
2022/10/14 08:17:03;;;;;;;29.98;15.20;;;;;;;21.07;50.83;98374.72;5299481;27;20044;-83
2022/10/14 08:19:30;;;;;;;28.52;15.02;;;;;;;20.03;54.66;98382.00;5299189;27;20090;-84
2022/10/14 08:21:57;;;;;;;27.20;15.20;;;;;;;21.86;48.95;98383.13;5299524;27;20076;-84
2022/10/14 08:24:24;;;;;;;33.20;15.07;;;;;;;21.63;49.70;98379.78;5299432;27;20056;-84
2022/10/14 08:26:53;;;;;;;32.72;15.02;;;;;;;20.88;51.41;98383.22;5299226;27;20049;-87
2022/10/14 08:29:24;;;;;;;24.60;14.18;;;;;;;21.95;47.96;98388.47;5299411;27;20075;-85
2022/10/14 08:31:53;;;;;;;27.52;13.60;;;;;;;21.24;49.95;98383.84;5299284;27;20317;-85
2022/10/14 08:34:20;;;;;;;30.95;15.30;;;;;;;21.18;50.05;98384.38;5299446;27;20139;-84
2022/10/14 08:36:47;;;;;;;26.37;14.30;;;;;;;19.96;52.91;98378.16;5299465;27;20048;-84
2022/10/14 08:39:18;;;;;;;31.35;14.35;;;;;;;21.01;50.93;98373.41;5298949;27;20324;-84
2022/10/14 08:41:59;;;;;;;28.00;14.45;;;;;;;21.70;48.43;98369.63;5299711;27;20161;-85
2022/10/14 08:44:33;;;;;;;26.60;14.10;;;;;;;22.52;47.09;98373.97;5299455;27;20065;-84
2022/10/14 08:47:01;;;;;;;29.45;14.20;;;;;;;21.53;48.38;98366.59;5261820;27;20724;-85
2022/10/14 08:49:34;;;;;;;24.77;14.18;;;;;;;23.14;44.98;98368.63;5279705;27;20464;-84
2022/10/14 08:52:11;;;;;;;33.88;14.55;;;;;;;23.35;45.26;98372.78;5280323;27;20065;-83
2022/10/14 08:54:40;;;;;;;26.50;13.35;;;;;;;22.61;47.31;98367.09;5299252;27;20529;-84
2022/10/14 08:57:13;;;;;;;26.58;13.00;;;;;;;21.64;48.66;98365.72;5280337;27;20053;-85
2022/10/14 08:59:41;;;;;;;29.15;13.88;;;;;;;22.38;47.29;98365.62;5280512;27;20377;-84
2022/10/14 09:02:24;;;;;;;26.90;13.60;;;;;;;22.71;47.66;98367.12;5299185;27;20054;-84
2022/10/14 09:04:51;;;;;;;25.12;13.55;;;;;;;23.08;46.14;98359.50;5299480;27;20106;-85
2022/10/14 09:07:18;;;;;;;23.58;12.65;;;;;;;23.62;44.60;98369.50;5299012;27;20060;-84
2022/10/14 09:10:06;;;;;;;24.23;13.38;;;;;;;22.21;47.96;98360.00;5299325;27;20417;-85
2022/10/14 09:12:34;;;;;;;23.95;12.93;;;;;;;23.44;44.98;98359.78;5280093;27;20061;-85
2022/10/14 09:15:18;;;;;;;25.27;12.80;;;;;;;23.15;45.71;98352.69;5279536;27;20080;-85
2022/10/14 09:17:51;;;;;;;27.20;13.57;;;;;;;24.12;43.62;98357.91;5279798;27;20324;-84
2022/10/14 09:20:21;;;;;;;24.00;12.55;;;;;;;24.02;43.60;98351.81;5279976;27;20500;-85
2022/10/14 09:23:18;;;;;;;21.37;12.98;;;;;;;23.25;45.40;98350.91;5298970;27;20058;-85
2022/10/14 09:25:57;;;;;;;23.75;12.50;;;;;;;24.60;42.22;98351.66;5299197;27;20067;-87
2022/10/14 09:28:39;;;;;;;26.87;13.50;;;;;;;23.23;45.43;98352.00;5279355;27;20068;-85
2022/10/14 09:31:10;;;;;;;24.15;12.95;;;;;;;24.04;43.79;98349.91;5299245;27;20048;-85
2022/10/14 09:33:40;;;;;;;21.80;12.25;;;;;;;24.01;43.87;98348.34;5299501;27;20061;-86
2022/10/14 09:36:16;;;;;;;22.10;11.77;;;;;;;24.82;42.16;98343.34;5298782;27;20113;-86
2022/10/14 09:38:46;;;;;;;27.75;12.00;;;;;;;23.70;44.67;98349.53;5279845;27;20060;-85
2022/10/14 09:41:15;;;;;;;23.33;12.55;;;;;;;23.91;44.91;98352.81;5299272;27;20164;-85
2022/10/14 09:44:22;;;;;;;24.98;12.52;;;;;;;23.60;45.54;98358.25;5298718;27;20312;-85
2022/10/14 09:46:52;;;;;;;21.35;11.27;;;;;;;25.61;40.86;98346.09;5298766;27;20072;-85
2022/10/14 09:49:28;;;;;;;25.55;12.63;;;;;;;25.38;41.44;98348.38;5298504;27;20054;-85
2022/10/14 09:51:56;;;;;;;21.25;11.77;;;;;;;26.42;38.68;98351.12;5279788;27;20059;-84
2022/10/14 09:54:25;;;;;;;21.00;11.38;;;;;;;25.32;40.42;98346.34;5298909;27;20071;-83
2022/10/14 09:57:04;;;;;;;26.15;12.37;;;;;;;25.72;40.23;98342.41;5279489;27;20075;-84
2022/10/14 09:59:31;;;;;;;19.25;11.88;;;;;;;24.59;42.95;98336.81;5299046;27;20538;-84
2022/10/14 10:02:00;;;;;;;23.40;11.30;;;;;;;26.16;39.04;98342.38;5298980;27;20045;-86
2022/10/14 10:04:30;;;;;;;18.17;10.93;;;;;;;27.14;37.41;98343.62;5278997;27;20118;-84
2022/10/14 10:06:59;;;;;;;21.33;11.73;;;;;;;25.53;40.00;98337.28;5299070;27;20065;-85
2022/10/14 10:09:26;;;;;;;19.77;10.55;;;;;;;26.51;39.44;98341.41;5299293;27;20408;-84
2022/10/14 10:11:54;;;;;;;20.00;9.80;;;;;;;26.07;38.99;98335.38;5299795;27;20049;-84
2022/10/14 10:14:29;;;;;;;18.80;10.20;;;;;;;24.60;42.53;98323.47;5299838;27;20072;-83
2022/10/14 10:17:08;;;;;;;19.87;10.23;;;;;;;24.78;42.14;98323.50;5280520;27;20105;-84
2022/10/14 10:19:43;;;;;;;22.37;10.50;;;;;;;23.70;43.94;98323.19;5299765;27;20071;-85
2022/10/14 10:22:25;;;;;;;18.62;9.77;;;;;;;25.92;39.47;98322.72;5300086;27;20052;-84
2022/10/14 10:25:02;;;;;;;19.62;10.15;;;;;;;24.73;41.49;98323.09;5299642;27;20404;-83
2022/10/14 10:27:35;;;;;;;19.80;9.57;;;;;;;25.17;40.77;98321.44;5300040;27;20057;-85
2022/10/14 10:30:20;;;;;;;16.58;9.00;;;;;;;25.75;38.66;98318.34;5300131;27;20109;-85
2022/10/14 10:32:55;;;;;;;15.65;9.00;;;;;;;25.61;38.85;98321.47;5299635;27;20049;-84
2022/10/14 10:36:02;;;;;;;18.40;9.82;;;;;;;25.74;39.82;98327.25;5299827;27;20415;-85
2022/10/14 10:39:17;;;;;;;17.45;9.57;;;;;;;25.06;40.82;98319.84;5299539;27;20071;-84
2022/10/14 10:42:06;;;;;;;18.60;9.80;;;;;;;26.58;38.80;98320.44;5299792;27;20053;-85
2022/10/14 10:44:48;;;;;;;18.92;9.48;;;;;;;26.73;39.28;98318.84;5299918;27;20094;-85
2022/10/14 10:47:46;;;;;;;19.75;7.72;;;;;;;27.12;37.29;98310.34;5301017;27;20110;-84
2022/10/14 10:50:41;;;;;;;18.10;9.75;;;;;;;26.51;37.93;98314.97;5280742;27;20100;-84
2022/10/14 10:53:32;;;;;;;15.15;8.65;;;;;;;26.58;37.91;98308.03;5299476;27;20057;-84
2022/10/14 10:56:05;;;;;;;18.60;9.70;;;;;;;25.33;40.67;98307.56;5293479;27;20083;-82
2022/10/14 10:58:56;;;;;;;18.05;9.00;;;;;;;25.28;38.57;98307.19;5295773;27;20092;-83
2022/10/14 11:04:32;;;;;;;13.85;7.93;;;;;;;25.52;40.23;98299.47;5298189;27;20331;-82
2022/10/14 11:30:32;;;;;;;;;;;;;;;26.14;38.07;98275.56;5225474;27;20061;-83
2022/10/14 11:33:23;;;;;;;18.83;9.05;;;;;;;25.27;37.65;98276.47;5299331;27;20009;-83
2022/10/14 11:36:02;;;;;;;17.85;9.07;;;;;;;25.25;37.99;98275.81;5298041;27;20072;-83
2022/10/14 11:38:33;;;;;;;16.90;9.45;;;;;;;27.03;35.65;98273.28;5291879;27;20085;-84
2022/10/14 11:41:17;;;;;;;18.70;9.23;;;;;;;25.59;38.29;98274.06;5298802;27;20460;-84
2022/10/14 11:44:11;;;;;;;17.20;8.95;;;;;;;26.49;37.00;98270.16;5299088;27;20049;-84
2022/10/14 11:46:41;;;;;;;18.23;9.85;;;;;;;25.58;38.41;98261.03;5298050;27;20080;-83
2022/10/14 11:49:21;;;;;;;17.52;9.50;;;;;;;27.06;35.22;98261.50;5298455;27;20117;-84
2022/10/14 11:51:58;;;;;;;17.50;10.05;;;;;;;27.01;37.84;98261.13;5279198;27;20105;-85
2022/10/14 11:54:34;;;;;;;17.90;10.20;;;;;;;26.89;35.51;98265.91;5298408;27;20046;-85
2022/10/14 11:57:18;;;;;;;21.92;10.77;;;;;;;25.15;39.24;98261.84;5298654;27;20620;-83
2022/10/14 11:59:54;;;;;;;18.73;11.07;;;;;;;23.91;42.18;98260.59;5298672;27;20398;-82
2022/10/14 12:02:42;;;;;;;21.25;12.85;;;;;;;24.78;42.21;98257.53;5279588;27;20052;-83